Etusivu
METAR-TAF:

METAR-TAF

Lentoasemat :

Dar es Salaam, Tansania

Julius Nyereren kansainvälinen lentoasema

Leveyspiiri: 06-52S, Pituuspiiri: 039-12E, korkeus merenpinnasta: 55 m

Tämänhetkinen sää

Tämä raportti tehtiin 1 tunti ja 23 minuuttia sitten, kello 20.00 UTC
tyyntä
Lämpötila 23°C
Kosteus 89%
Ilmanpaine 1016 hPa
Näkyvyys 10 km tai enemmän

METAR: HTDA 172000Z 00000KT 9999 23/21 Q1016 NOSIG

Aika: 00:23 (21:23 UTC)

Sääennuste

Tämä raportti tehtiin 4 tuntia ja 23 minuuttia sitten, kello 17.00 UTC
Ennuste voimassa 17. päivästä klo 18 UTC - 18. päivään klo 24 UTC
Tuuli 5 kn idästä
Näkyvyys 10 km tai enemmän
Hajanaisia pilviä 1500 ft:n korkeudessa
Tulossa
17. päivästä klo 18 UTC - 17. päivään klo 21 UTC
Tuuli kn pohjoisesta
Ajoittain
08. päivästä klo 07 UTC - 08. päivään klo 10 UTC
Tuuli 10 kn idästä/kaakosta
Hajonneita pilviä 2000 ft:n korkeudessa
sadetta

TAF: HTDA 171700Z 1718/1824 10005KT 9999 SCT015 BECMG 1718/1721 00000KT TEMPO 0807/0810 12010KT RA BKN020

Säähavainnot ja -ennusteet yli 4000 lentoasemalta (METAR- ja TAF-raportit).

Käytössä olevat sääasemat on merkitty karttaan keltaisilla ja punaisilla pisteillä.

Aseta hiiri pisteen päälle nähdäksesi sääaseman nimen.

Klikkaa sitten nähdäksesi säähavainnot ja -ennusteet.

Kartan vaihtaminen: klikkaa mustalla rastilla varustettuja vihreitä pisteitä, niin voit zoomata sisään; viivalla varustettua vihreää pistettä, niin voit zoomata ulos tai vihreitä nuolia, niin pääset viereisille kartoille.


METAR-TAF: